Time;durP1;ratioP1;P1;durP2;ratioP2;P2;SDS_P1;SDS_P2;PMS_P1;PMS_P2;Temp;Humidity;BMP_temperature;BMP_pressure;BME280_temperature;BME280_humidity;BME280_pressure;Samples;Min_cycle;Max_cycle;Signal;HPM_P1;HPM_P2
2023/12/29 00:00:41;;;;;;;6.47;1.40;;;25.70;99.90;;;;;;5127230;27;20190;-77
2023/12/29 00:03:11;;;;;;;4.70;1.38;;;25.70;99.90;;;;;;5129483;27;20206;-78
2023/12/29 00:05:42;;;;;;;8.30;1.70;;;25.70;99.90;;;;;;5131575;27;20216;-77
2023/12/29 00:08:13;;;;;;;7.97;1.80;;;25.80;99.90;;;;;;5132977;27;20694;-76
2023/12/29 00:10:44;;;;;;;5.68;1.42;;;25.90;99.90;;;;;;5128210;27;20232;-77
2023/12/29 00:13:21;;;;;;;6.57;1.40;;;26.00;99.90;;;;;;5135005;27;20298;-79
2023/12/29 00:15:55;;;;;;;6.22;1.60;;;26.20;99.90;;;;;;5136698;27;20236;-78
2023/12/29 00:18:26;;;;;;;7.75;1.50;;;26.30;99.90;;;;;;5131553;27;20208;-78
2023/12/29 00:20:57;;;;;;;7.25;1.30;;;26.30;99.90;;;;;;5136228;27;20204;-78
2023/12/29 00:23:30;;;;;;;9.30;1.48;;;26.40;99.90;;;;;;5138288;27;20190;-78
2023/12/29 00:26:01;;;;;;;7.25;1.42;;;26.50;99.90;;;;;;5134339;27;20254;-79
2023/12/29 00:28:35;;;;;;;4.60;1.50;;;26.50;99.90;;;;;;5134249;27;20275;-79
2023/12/29 00:31:07;;;;;;;7.10;1.67;;;26.50;99.90;;;;;;5134784;27;20276;-79
2023/12/29 00:33:38;;;;;;;5.25;1.48;;;26.40;99.90;;;;;;5132146;27;20202;-77
2023/12/29 00:36:09;;;;;;;8.00;1.27;;;26.40;99.90;;;;;;5124589;27;20214;-78
2023/12/29 00:38:39;;;;;;;6.55;1.42;;;26.50;99.90;;;;;;5115191;27;20897;-79
2023/12/29 00:41:10;;;;;;;6.32;1.58;;;26.50;99.90;;;;;;5131678;27;20209;-76
2023/12/29 00:43:44;;;;;;;4.97;1.40;;;26.60;99.90;;;;;;5131174;27;20698;-77
2023/12/29 00:46:18;;;;;;;6.35;1.60;;;26.60;99.90;;;;;;5115764;27;20219;-77
2023/12/29 00:48:52;;;;;;;10.93;1.80;;;26.70;99.90;;;;;;5115425;27;20212;-78
2023/12/29 00:51:22;;;;;;;7.70;1.70;;;26.70;99.90;;;;;;5127216;27;20225;-77
2023/12/29 00:53:53;;;;;;;7.13;1.88;;;26.70;99.90;;;;;;5129614;27;20250;-79
2023/12/29 00:56:24;;;;;;;6.47;1.70;;;26.70;99.90;;;;;;5142276;27;20309;-78
2023/12/29 00:58:57;;;;;;;7.57;1.50;;;26.60;99.90;;;;;;5133322;27;20215;-78
2023/12/29 01:01:28;;;;;;;6.45;1.48;;;26.40;99.90;;;;;;5134020;27;20222;-79
2023/12/29 01:03:58;;;;;;;6.78;1.60;;;26.50;99.90;;;;;;5131447;27;20221;-78
2023/12/29 01:06:29;;;;;;;9.20;1.67;;;26.50;99.90;;;;;;5131579;27;20218;-79
2023/12/29 01:09:00;;;;;;;8.05;1.80;;;26.50;99.90;;;;;;5137878;27;20265;-78
2023/12/29 01:11:31;;;;;;;7.30;1.70;;;26.60;99.90;;;;;;5138774;27;20260;-78
2023/12/29 01:14:04;;;;;;;6.88;1.77;;;26.60;99.90;;;;;;5135166;27;20213;-78
2023/12/29 01:16:35;;;;;;;6.25;1.55;;;26.70;99.90;;;;;;5125947;27;20213;-77
2023/12/29 01:19:05;;;;;;;8.07;1.75;;;26.70;99.90;;;;;;5121952;27;20187;-78
2023/12/29 01:21:39;;;;;;;7.88;1.73;;;26.60;99.90;;;;;;5118134;27;20218;-78
2023/12/29 01:24:10;;;;;;;8.02;1.75;;;26.50;99.90;;;;;;5126326;27;20219;-77
2023/12/29 01:26:41;;;;;;;10.40;1.88;;;26.50;99.90;;;;;;5122573;27;20724;-77
2023/12/29 01:29:14;;;;;;;4.53;1.23;;;26.60;99.90;;;;;;5136823;27;20228;-77
2023/12/29 01:31:45;;;;;;;6.72;1.50;;;26.50;99.90;;;;;;5128249;27;20719;-77
2023/12/29 01:34:16;;;;;;;7.45;1.83;;;26.60;99.90;;;;;;5126540;27;20194;-77
2023/12/29 01:36:47;;;;;;;9.32;1.80;;;26.70;99.90;;;;;;5137856;27;20575;-78
2023/12/29 01:39:18;;;;;;;7.00;1.55;;;26.70;99.90;;;;;;5127935;27;20809;-77
2023/12/29 01:41:49;;;;;;;8.48;2.08;;;26.70;99.90;;;;;;5135862;27;20215;-78
2023/12/29 01:44:28;;;;;;;10.73;1.92;;;26.80;99.90;;;;;;5133724;27;20683;-77
2023/12/29 01:47:01;;;;;;;6.20;1.58;;;26.90;99.90;;;;;;5152215;27;20227;-76
2023/12/29 01:49:33;;;;;;;6.97;1.80;;;27.00;99.90;;;;;;5128198;27;20235;-78
2023/12/29 01:52:04;;;;;;;7.47;2.05;;;27.20;99.90;;;;;;5123720;27;20225;-77
2023/12/29 01:54:38;;;;;;;7.20;1.77;;;27.40;99.90;;;;;;5143904;27;20218;-76
2023/12/29 01:57:09;;;;;;;6.22;1.52;;;27.50;99.90;;;;;;5133792;27;20214;-78
2023/12/29 01:59:43;;;;;;;10.05;1.80;;;27.50;99.90;;;;;;5119499;27;20219;-77
2023/12/29 02:02:15;;;;;;;6.85;1.70;;;27.60;99.90;;;;;;5132226;27;20647;-77
2023/12/29 02:04:47;;;;;;;9.60;2.30;;;27.50;99.90;;;;;;5129577;27;20692;-79
2023/12/29 02:07:17;;;;;;;7.65;2.10;;;27.60;99.90;;;;;;5144572;27;20211;-80
2023/12/29 02:09:50;;;;;;;7.40;1.90;;;27.70;99.90;;;;;;5132197;27;20234;-79
2023/12/29 02:12:21;;;;;;;6.35;1.52;;;27.60;99.90;;;;;;5134113;27;20214;-78
2023/12/29 02:14:54;;;;;;;9.90;1.92;;;27.60;99.90;;;;;;5123215;27;20190;-79
2023/12/29 02:17:29;;;;;;;7.28;1.70;;;27.70;99.90;;;;;;5111554;27;20224;-79
2023/12/29 02:19:59;;;;;;;5.30;1.83;;;27.60;99.90;;;;;;5126275;27;20193;-78
2023/12/29 02:22:30;;;;;;;8.25;2.00;;;27.70;99.90;;;;;;5128284;27;20225;-77
2023/12/29 02:25:05;;;;;;;8.48;1.90;;;27.70;99.90;;;;;;5121202;27;20240;-77
2023/12/29 02:27:47;;;;;;;6.05;1.80;;;27.60;99.90;;;;;;5117511;27;20218;-77
2023/12/29 02:30:25;;;;;;;6.40;1.83;;;27.60;99.90;;;;;;5131081;27;20190;-77
2023/12/29 02:33:03;;;;;;;7.72;2.03;;;27.50;99.90;;;;;;5127545;27;20194;-76
2023/12/29 02:35:45;;;;;;;9.20;2.00;;;27.50;99.90;;;;;;5123366;27;20216;-77
2023/12/29 02:38:16;;;;;;;5.78;1.38;;;27.30;99.90;;;;;;5129264;28;20564;-77
2023/12/29 02:40:50;;;;;;;8.40;1.92;;;27.20;99.90;;;;;;5111108;27;20568;-77
2023/12/29 02:43:20;;;;;;;6.95;1.80;;;27.10;99.90;;;;;;5116285;27;20194;-78
2023/12/29 02:45:51;;;;;;;11.52;2.40;;;27.00;99.90;;;;;;5125532;27;20186;-77
2023/12/29 02:48:22;;;;;;;8.40;2.00;;;27.00;99.90;;;;;;5117950;27;20222;-78
2023/12/29 02:50:53;;;;;;;7.78;1.88;;;27.00;99.90;;;;;;5126205;27;20204;-77
2023/12/29 02:53:23;;;;;;;10.38;1.77;;;26.90;99.90;;;;;;5128217;27;20198;-77
2023/12/29 02:55:56;;;;;;;8.73;1.77;;;26.90;99.90;;;;;;5127390;27;20716;-78
2023/12/29 02:58:27;;;;;;;6.60;1.75;;;26.90;99.90;;;;;;5123565;27;20214;-78
2023/12/29 03:00:58;;;;;;;6.90;1.80;;;26.80;99.90;;;;;;5129259;27;20753;-78
2023/12/29 03:03:31;;;;;;;9.30;1.90;;;26.70;99.90;;;;;;5126583;27;20202;-77
2023/12/29 03:06:01;;;;;;;7.60;1.90;;;26.70;99.90;;;;;;5133551;27;20199;-77
2023/12/29 03:08:32;;;;;;;10.70;2.55;;;26.70;99.90;;;;;;5130457;28;20232;-77
2023/12/29 03:11:05;;;;;;;8.82;1.95;;;26.60;99.90;;;;;;5135909;27;20225;-77
2023/12/29 03:13:35;;;;;;;8.70;1.80;;;26.50;99.90;;;;;;5132585;27;20640;-78
2023/12/29 03:16:06;;;;;;;7.60;1.88;;;26.60;99.90;;;;;;5120291;27;20746;-78
2023/12/29 03:18:39;;;;;;;13.82;2.00;;;26.50;99.90;;;;;;5128207;27;20715;-77
2023/12/29 03:21:10;;;;;;;13.18;2.25;;;26.50;99.90;;;;;;5132846;27;20198;-76
2023/12/29 03:23:41;;;;;;;5.95;1.65;;;26.60;99.90;;;;;;5119658;28;20221;-77
2023/12/29 03:26:14;;;;;;;10.77;2.10;;;26.50;99.90;;;;;;5120650;27;20285;-78
2023/12/29 03:28:48;;;;;;;9.15;1.90;;;26.50;99.90;;;;;;5138345;27;20329;-77
2023/12/29 03:31:19;;;;;;;7.25;1.90;;;26.50;99.90;;;;;;5137908;27;20194;-77
2023/12/29 03:33:49;;;;;;;10.27;1.80;;;26.60;99.90;;;;;;5135582;27;20656;-78
2023/12/29 03:36:20;;;;;;;5.22;1.73;;;26.60;99.90;;;;;;5137737;27;20202;-78
2023/12/29 03:38:51;;;;;;;5.45;1.80;;;26.60;99.90;;;;;;5117620;28;20193;-78
2023/12/29 03:41:24;;;;;;;12.45;1.90;;;26.70;99.90;;;;;;5117790;27;20198;-77
2023/12/29 03:43:56;;;;;;;12.15;2.13;;;26.70;99.90;;;;;;5134933;27;20190;-77
2023/12/29 03:46:26;;;;;;;7.28;1.80;;;26.60;99.90;;;;;;5133823;27;20190;-77
2023/12/29 03:49:00;;;;;;;8.95;1.70;;;26.70;99.90;;;;;;5135283;27;20221;-77
2023/12/29 03:51:31;;;;;;;6.55;1.70;;;26.70;99.90;;;;;;5141399;27;20262;-77
2023/12/29 03:54:03;;;;;;;8.52;2.03;;;26.70;99.90;;;;;;5145371;27;20194;-77
2023/12/29 03:56:36;;;;;;;8.98;1.90;;;26.70;99.90;;;;;;5143869;27;20190;-76
2023/12/29 03:59:07;;;;;;;7.22;1.60;;;26.70;99.90;;;;;;5136771;27;20197;-77
2023/12/29 04:01:38;;;;;;;8.65;2.08;;;26.60;99.90;;;;;;5165309;27;20272;-77
2023/12/29 04:04:09;;;;;;;6.97;2.08;;;26.60;99.90;;;;;;5146819;27;20297;-77
2023/12/29 04:06:39;;;;;;;9.10;2.05;;;26.60;99.90;;;;;;5139202;27;20211;-77
2023/12/29 04:09:10;;;;;;;8.07;1.98;;;26.60;99.90;;;;;;5157707;27;20224;-77
2023/12/29 04:11:43;;;;;;;7.15;1.77;;;26.50;99.90;;;;;;5141850;27;20190;-77
2023/12/29 04:14:14;;;;;;;10.43;2.08;;;26.60;99.90;;;;;;5137512;27;20185;-77
2023/12/29 04:16:45;;;;;;;7.50;1.80;;;26.70;99.90;;;;;;5134168;27;20190;-77
2023/12/29 04:19:16;;;;;;;8.32;1.98;;;26.80;99.90;;;;;;5139514;27;20197;-77
2023/12/29 04:21:47;;;;;;;6.28;1.63;;;26.80;99.90;;;;;;5119578;27;20671;-76
2023/12/29 04:24:18;;;;;;;7.53;2.03;;;26.70;99.90;;;;;;5140623;27;20677;-76
2023/12/29 04:26:50;;;;;;;9.35;2.08;;;26.60;99.90;;;;;;5139919;27;20209;-75
2023/12/29 04:29:21;;;;;;;9.55;2.10;;;26.40;99.90;;;;;;5136952;27;20221;-75
2023/12/29 04:31:52;;;;;;;7.20;1.88;;;26.50;99.90;;;;;;5120504;27;20194;-75
2023/12/29 04:34:23;;;;;;;10.32;2.05;;;26.40;99.90;;;;;;5135859;27;20660;-76
2023/12/29 04:36:53;;;;;;;4.68;1.60;;;26.40;99.90;;;;;;5147269;27;20201;-77
2023/12/29 04:39:24;;;;;;;8.63;1.90;;;26.40;99.90;;;;;;5138707;27;20206;-77
2023/12/29 04:41:57;;;;;;;6.80;1.77;;;26.40;99.90;;;;;;5129363;27;20198;-77
2023/12/29 04:44:28;;;;;;;7.78;1.75;;;26.30;99.90;;;;;;5123990;27;20210;-77
2023/12/29 04:46:59;;;;;;;7.00;1.90;;;26.20;99.90;;;;;;5147895;27;20193;-77
2023/12/29 04:49:29;;;;;;;6.60;1.80;;;26.20;99.90;;;;;;5136805;27;20225;-77
2023/12/29 04:52:01;;;;;;;8.50;1.90;;;26.20;99.90;;;;;;5133880;27;20285;-78
2023/12/29 04:54:31;;;;;;;7.32;1.60;;;26.10;99.90;;;;;;5134044;27;20186;-77
2023/12/29 04:57:04;;;;;;;6.32;1.80;;;26.10;99.90;;;;;;5133949;27;20573;-77
2023/12/29 04:59:35;;;;;;;6.93;1.77;;;26.10;99.90;;;;;;5128597;27;20729;-77
2023/12/29 05:02:06;;;;;;;10.57;1.70;;;26.10;99.90;;;;;;5137977;27;20231;-77
2023/12/29 05:04:37;;;;;;;6.53;1.52;;;26.20;99.90;;;;;;5138493;27;20201;-78
2023/12/29 05:07:11;;;;;;;7.28;1.80;;;26.40;99.90;;;;;;5131248;27;20671;-77
2023/12/29 05:09:42;;;;;;;4.72;1.40;;;26.50;99.90;;;;;;5133376;27;20245;-77
2023/12/29 05:12:14;;;;;;;7.45;1.95;;;26.70;99.90;;;;;;5133734;27;20561;-77
2023/12/29 05:14:45;;;;;;;6.88;1.65;;;26.80;99.90;;;;;;5134126;27;20277;-77
2023/12/29 05:17:16;;;;;;;8.25;1.50;;;26.90;99.90;;;;;;5133963;27;20194;-77
2023/12/29 05:19:47;;;;;;;5.32;1.60;;;27.10;99.90;;;;;;5131488;27;20198;-77
2023/12/29 05:22:18;;;;;;;6.47;1.70;;;27.00;99.90;;;;;;5133191;27;20652;-77
2023/12/29 05:24:48;;;;;;;7.53;1.92;;;26.90;99.90;;;;;;5133603;27;20202;-78
2023/12/29 05:27:21;;;;;;;7.03;1.67;;;26.90;99.90;;;;;;5138636;27;20204;-78
2023/12/29 05:29:52;;;;;;;8.93;2.10;;;27.00;99.90;;;;;;5125141;27;20194;-77
2023/12/29 05:32:23;;;;;;;7.53;1.70;;;27.00;99.90;;;;;;5112620;28;20198;-77
2023/12/29 05:34:54;;;;;;;5.88;1.90;;;27.10;99.90;;;;;;5121122;27;20277;-78
2023/12/29 05:37:25;;;;;;;5.72;1.73;;;27.20;99.90;;;;;;5133295;27;20197;-79
2023/12/29 05:39:56;;;;;;;4.32;1.48;;;27.10;99.90;;;;;;5132843;27;20237;-79
2023/12/29 05:42:29;;;;;;;5.20;1.58;;;26.90;99.90;;;;;;5131888;27;20204;-78
2023/12/29 05:44:59;;;;;;;4.63;1.20;;;26.70;99.90;;;;;;5133440;27;20270;-77
2023/12/29 05:47:30;;;;;;;8.52;1.70;;;26.60;99.90;;;;;;5140354;27;20245;-78
2023/12/29 05:50:01;;;;;;;9.68;1.98;;;26.50;99.90;;;;;;5141097;27;20339;-78
2023/12/29 05:52:32;;;;;;;7.57;1.73;;;26.50;99.90;;;;;;5133398;27;20281;-78
2023/12/29 05:55:03;;;;;;;5.32;1.50;;;26.30;99.90;;;;;;5132591;27;20194;-78
2023/12/29 05:57:35;;;;;;;7.93;1.90;;;26.30;99.90;;;;;;5133279;27;20194;-77
2023/12/29 06:00:08;;;;;;;9.82;1.70;;;26.30;99.90;;;;;;5127368;27;20213;-77
2023/12/29 06:02:39;;;;;;;8.65;1.70;;;26.30;99.90;;;;;;5126654;27;20226;-78
2023/12/29 06:05:11;;;;;;;7.38;1.67;;;26.20;99.90;;;;;;5130635;27;20707;-78
2023/12/29 06:07:42;;;;;;;7.28;1.60;;;26.20;99.90;;;;;;5130142;27;20559;-78
2023/12/29 06:10:13;;;;;;;6.55;1.75;;;26.10;99.90;;;;;;5120633;27;20657;-77
2023/12/29 06:12:46;;;;;;;8.63;1.80;;;26.00;99.90;;;;;;5130065;27;20626;-77
2023/12/29 06:15:17;;;;;;;8.27;1.73;;;25.90;99.90;;;;;;5133399;27;20233;-77
2023/12/29 06:17:48;;;;;;;8.77;1.65;;;25.90;99.90;;;;;;5131918;27;20202;-78
2023/12/29 06:20:20;;;;;;;9.05;1.85;;;26.00;99.90;;;;;;5130268;27;20194;-78
2023/12/29 06:22:50;;;;;;;6.97;1.88;;;26.10;99.90;;;;;;5132349;27;20543;-77
2023/12/29 06:25:22;;;;;;;9.80;2.20;;;26.10;99.90;;;;;;5132100;27;20280;-78
2023/12/29 06:27:55;;;;;;;10.52;1.80;;;26.10;99.90;;;;;;5132342;27;20225;-78
2023/12/29 06:30:25;;;;;;;8.48;1.80;;;26.10;99.90;;;;;;5133146;27;20280;-78
2023/12/29 06:32:56;;;;;;;8.18;1.70;;;26.00;99.90;;;;;;5131868;27;20682;-77
2023/12/29 06:35:27;;;;;;;9.98;1.90;;;25.90;99.90;;;;;;5113112;27;20193;-77
2023/12/29 06:37:58;;;;;;;8.80;2.00;;;25.80;99.90;;;;;;5128221;27;20206;-79
2023/12/29 06:40:29;;;;;;;9.15;1.95;;;25.90;99.90;;;;;;5132197;27;20277;-79
2023/12/29 06:43:01;;;;;;;7.70;2.00;;;25.90;99.90;;;;;;5129839;27;20193;-79
2023/12/29 06:45:32;;;;;;;6.65;1.85;;;25.80;99.90;;;;;;5133993;27;20216;-78
2023/12/29 06:48:03;;;;;;;7.95;2.00;;;25.90;99.90;;;;;;5136974;27;20237;-78
2023/12/29 06:50:34;;;;;;;8.27;2.00;;;25.80;99.90;;;;;;5122801;27;20284;-78
2023/12/29 06:53:06;;;;;;;8.10;2.00;;;25.80;99.90;;;;;;5133803;27;20259;-78
2023/12/29 06:55:37;;;;;;;6.57;1.90;;;25.80;99.90;;;;;;5130420;27;20231;-78
2023/12/29 06:58:10;;;;;;;9.88;2.03;;;25.70;99.90;;;;;;5122546;27;20236;-77
2023/12/29 07:00:41;;;;;;;8.40;1.80;;;25.70;99.90;;;;;;5135745;27;20205;-78
2023/12/29 07:03:16;;;;;;;7.60;2.03;;;25.70;99.90;;;;;;5135054;27;20244;-79
2023/12/29 07:05:50;;;;;;;5.63;1.58;;;25.70;99.90;;;;;;5136282;27;20296;-77
2023/12/29 07:08:21;;;;;;;8.68;2.20;;;25.60;99.90;;;;;;5135935;27;20225;-78
2023/12/29 07:10:52;;;;;;;5.07;2.03;;;25.60;99.90;;;;;;5131665;27;20762;-78
2023/12/29 07:13:25;;;;;;;6.63;1.63;;;25.70;99.90;;;;;;5130090;27;20255;-79
2023/12/29 07:15:56;;;;;;;8.25;2.00;;;25.70;99.90;;;;;;5140672;27;20232;-77
2023/12/29 07:18:27;;;;;;;7.55;2.40;;;25.70;99.90;;;;;;5137617;27;20307;-78
2023/12/29 07:20:58;;;;;;;8.80;1.90;;;25.70;99.90;;;;;;5124511;27;20277;-78
2023/12/29 07:23:28;;;;;;;7.95;1.98;;;25.60;99.90;;;;;;5126450;27;20277;-78
2023/12/29 07:25:59;;;;;;;9.02;2.28;;;25.50;99.90;;;;;;5126211;27;20260;-79
2023/12/29 07:28:34;;;;;;;6.72;1.55;;;25.50;99.90;;;;;;5123404;27;20221;-78
2023/12/29 07:31:06;;;;;;;8.10;1.85;;;25.50;99.90;;;;;;5134811;27;20189;-78
2023/12/29 07:33:39;;;;;;;10.02;2.13;;;25.50;99.90;;;;;;5135124;27;20306;-78
2023/12/29 07:36:11;;;;;;;9.10;1.90;;;25.60;99.90;;;;;;5129305;27;20234;-78
2023/12/29 07:38:42;;;;;;;7.75;2.17;;;25.60;99.90;;;;;;5123280;27;20214;-79
2023/12/29 07:41:13;;;;;;;7.65;2.10;;;25.60;99.90;;;;;;5129050;27;20334;-78
2023/12/29 07:43:46;;;;;;;9.05;2.22;;;25.50;99.90;;;;;;5137334;27;20628;-79
2023/12/29 07:46:25;;;;;;;7.43;2.00;;;25.50;99.90;;;;;;5131047;27;20583;-79
2023/12/29 07:48:57;;;;;;;7.47;1.98;;;25.50;99.90;;;;;;5126909;27;20252;-78
2023/12/29 07:51:27;;;;;;;8.75;1.85;;;25.50;99.90;;;;;;5126931;27;20214;-78
2023/12/29 07:53:58;;;;;;;5.22;1.63;;;25.50;99.90;;;;;;5131418;27;20424;-78
2023/12/29 07:56:29;;;;;;;7.85;1.95;;;25.60;99.90;;;;;;5122378;27;20552;-79
2023/12/29 07:59:02;;;;;;;6.20;1.95;;;25.60;99.90;;;;;;5134462;27;20648;-78
2023/12/29 08:01:32;;;;;;;6.78;1.92;;;25.60;99.90;;;;;;5135715;27;20190;-78
2023/12/29 08:04:03;;;;;;;7.40;1.77;;;25.60;99.90;;;;;;5130846;27;20301;-79
2023/12/29 08:06:34;;;;;;;8.85;1.98;;;25.60;99.90;;;;;;5129403;27;20559;-76
2023/12/29 08:09:09;;;;;;;8.32;2.10;;;25.60;99.90;;;;;;5129233;27;20308;-78
2023/12/29 08:11:39;;;;;;;6.45;1.90;;;25.50;99.90;;;;;;5148155;27;20423;-78
2023/12/29 08:14:12;;;;;;;6.22;1.70;;;25.50;99.90;;;;;;5149955;27;20174;-79
2023/12/29 08:16:43;;;;;;;6.38;2.08;;;25.50;99.90;;;;;;5144685;27;20206;-79
2023/12/29 08:19:15;;;;;;;8.00;1.70;;;25.50;99.90;;;;;;5146269;27;20236;-79
2023/12/29 08:21:46;;;;;;;7.07;2.15;;;25.50;99.90;;;;;;5125761;27;20672;-79
2023/12/29 08:24:17;;;;;;;8.30;1.98;;;25.50;99.90;;;;;;5118371;27;20194;-80
2023/12/29 08:26:49;;;;;;;9.70;1.90;;;25.50;99.90;;;;;;5141400;27;20214;-79
2023/12/29 08:29:22;;;;;;;9.48;2.03;;;25.40;99.90;;;;;;5128425;27;20759;-79
2023/12/29 08:31:53;;;;;;;6.75;1.95;;;25.40;99.90;;;;;;5133702;27;20213;-79
2023/12/29 08:34:23;;;;;;;10.52;2.53;;;25.40;99.90;;;;;;5134319;27;20289;-79
2023/12/29 08:36:54;;;;;;;7.22;2.00;;;25.40;99.90;;;;;;5141626;27;20267;-79
2023/12/29 08:39:25;;;;;;;7.68;2.17;;;25.40;99.90;;;;;;5135220;27;20194;-79
2023/12/29 08:41:56;;;;;;;7.57;2.35;;;25.40;99.90;;;;;;5135232;27;20308;-79
2023/12/29 08:44:29;;;;;;;8.27;2.00;;;25.40;99.90;;;;;;5127699;27;20677;-79
2023/12/29 08:46:59;;;;;;;8.57;2.33;;;25.30;99.90;;;;;;5131671;27;20283;-79
2023/12/29 08:49:29;;;;;;;6.10;1.83;;;25.40;99.90;;;;;;5132242;27;20222;-79
2023/12/29 08:51:59;;;;;;;5.95;1.80;;;25.40;99.90;;;;;;5130124;27;20285;-80
2023/12/29 08:54:30;;;;;;;8.35;2.15;;;25.50;99.90;;;;;;5129926;27;20197;-79
2023/12/29 08:57:01;;;;;;;8.55;2.30;;;25.50;99.90;;;;;;5137877;27;20181;-87
2023/12/29 08:59:33;;;;;;;7.38;2.13;;;25.50;99.90;;;;;;5130849;27;20255;-83
2023/12/29 09:02:04;;;;;;;8.10;2.28;;;25.50;99.90;;;;;;5128616;27;20704;-82
2023/12/29 09:04:35;;;;;;;8.98;3.40;;;25.40;99.90;;;;;;5123990;27;20190;-81
2023/12/29 09:07:06;;;;;;;7.93;2.97;;;25.40;99.90;;;;;;5126912;27;20196;-81
2023/12/29 09:09:44;;;;;;;14.35;7.80;;;25.40;99.90;;;;;;5132371;27;20260;-80
2023/12/29 09:12:15;;;;;;;11.65;5.88;;;25.30;99.90;;;;;;5134107;27;20683;-81
2023/12/29 09:14:47;;;;;;;7.38;3.60;;;25.30;99.90;;;;;;5128622;27;20277;-81
2023/12/29 09:17:18;;;;;;;9.95;3.17;;;25.30;99.90;;;;;;5128111;27;20590;-81
2023/12/29 09:19:49;;;;;;;8.60;2.63;;;25.20;99.90;;;;;;5127184;27;20486;-83
2023/12/29 09:22:20;;;;;;;8.02;2.20;;;25.20;99.90;;;;;;5134200;27;20197;-83
2023/12/29 09:24:51;;;;;;;8.20;2.15;;;25.20;99.90;;;;;;5147047;27;20214;-81
2023/12/29 09:27:21;;;;;;;9.85;2.10;;;25.20;99.90;;;;;;5151637;27;20280;-81
2023/12/29 09:29:54;;;;;;;9.77;2.22;;;25.20;99.90;;;;;;5146482;27;20230;-80
2023/12/29 09:32:25;;;;;;;8.55;2.30;;;25.20;99.90;;;;;;5119525;27;20203;-81
2023/12/29 09:34:56;;;;;;;7.78;2.20;;;25.20;99.90;;;;;;5129102;27;20225;-79
2023/12/29 09:37:27;;;;;;;7.88;2.03;;;25.20;99.90;;;;;;5153287;27;20201;-80
2023/12/29 09:39:57;;;;;;;8.52;2.53;;;25.10;99.90;;;;;;5150806;27;20284;-79
2023/12/29 09:42:31;;;;;;;7.05;2.15;;;25.10;99.90;;;;;;5126927;27;20281;-78
2023/12/29 09:45:09;;;;;;;5.63;2.05;;;25.10;99.90;;;;;;5132683;27;20217;-80
2023/12/29 09:47:42;;;;;;;6.88;1.90;;;25.10;99.90;;;;;;5133886;27;20666;-80
2023/12/29 09:50:15;;;;;;;7.82;2.58;;;25.10;99.90;;;;;;5132395;27;20225;-80
2023/12/29 09:52:49;;;;;;;6.05;2.10;;;25.10;99.90;;;;;;5144472;27;20677;-81
2023/12/29 09:55:21;;;;;;;7.85;4.07;;;25.10;99.90;;;;;;5133553;27;20201;-81
2023/12/29 09:57:52;;;;;;;7.70;3.33;;;25.10;99.90;;;;;;5127418;27;20293;-79
2023/12/29 10:00:25;;;;;;;7.55;2.20;;;25.00;99.90;;;;;;5140379;27;20281;-79
2023/12/29 10:02:56;;;;;;;7.47;1.98;;;25.00;99.90;;;;;;5129081;27;20262;-79
2023/12/29 10:05:27;;;;;;;5.03;1.90;;;24.90;99.90;;;;;;5129411;27;20202;-80
2023/12/29 10:08:03;;;;;;;4.10;1.85;;;24.90;99.90;;;;;;5130764;27;20190;-80
2023/12/29 10:10:35;;;;;;;7.07;2.10;;;24.90;99.90;;;;;;5146569;27;20225;-81
2023/12/29 10:13:08;;;;;;;4.28;1.77;;;24.90;99.90;;;;;;5133977;27;20606;-80
2023/12/29 10:15:54;;;;;;;6.68;2.10;;;24.90;99.90;;;;;;5125740;27;20284;-81
2023/12/29 10:18:31;;;;;;;4.18;1.60;;;24.80;99.90;;;;;;5138655;27;20204;-81
2023/12/29 10:21:10;;;;;;;2.28;1.27;;;24.70;99.90;;;;;;5121822;27;20217;-80
2023/12/29 10:23:45;;;;;;;1.70;0.98;;;24.50;99.90;;;;;;5130980;27;20281;-81
2023/12/29 10:26:17;;;;;;;2.17;0.93;;;24.50;99.90;;;;;;5127083;27;20610;-81
2023/12/29 10:28:49;;;;;;;2.03;0.75;;;24.40;99.90;;;;;;5129125;27;20201;-81
2023/12/29 10:31:22;;;;;;;1.33;0.60;;;24.40;99.90;;;;;;5134607;27;20221;-80
2023/12/29 10:33:53;;;;;;;1.52;0.63;;;24.30;99.90;;;;;;5138997;27;20222;-79
2023/12/29 10:36:24;;;;;;;1.25;0.50;;;24.40;99.90;;;;;;5125827;27;20559;-81
2023/12/29 10:39:10;;;;;;;1.92;0.70;;;24.40;99.90;;;;;;5139032;27;20241;-80
2023/12/29 10:41:41;;;;;;;1.58;0.50;;;24.50;99.90;;;;;;5152602;27;20679;-79
2023/12/29 10:44:12;;;;;;;0.57;0.55;;;24.50;99.90;;;;;;5149009;27;20234;-81
2023/12/29 10:46:45;;;;;;;0.32;0.30;;;24.50;99.90;;;;;;5123080;27;20198;-79
2023/12/29 10:49:16;;;;;;;0.70;0.40;;;24.50;99.90;;;;;;5129456;27;20200;-78
2023/12/29 10:51:47;;;;;;;0.43;0.40;;;24.60;99.90;;;;;;5127660;27;20215;-79
2023/12/29 10:54:24;;;;;;;0.73;0.55;;;24.70;99.90;;;;;;5121515;27;20220;-79
2023/12/29 10:57:05;;;;;;;0.80;0.80;;;24.70;99.90;;;;;;5135461;27;20219;-78
2023/12/29 10:59:36;;;;;;;1.05;0.60;;;24.70;99.90;;;;;;5131123;27;20219;-78
2023/12/29 11:02:14;;;;;;;3.00;0.60;;;24.80;99.90;;;;;;5134151;27;20222;-80
2023/12/29 11:04:45;;;;;;;0.60;0.55;;;24.90;99.90;;;;;;5136145;27;20210;-79
2023/12/29 11:07:16;;;;;;;1.00;0.50;;;24.90;99.90;;;;;;5128241;27;20198;-79
2023/12/29 11:09:48;;;;;;;0.60;0.40;;;24.90;99.90;;;;;;5130960;28;20313;-79
2023/12/29 11:12:19;;;;;;;0.70;0.50;;;24.90;99.90;;;;;;5130615;27;20285;-78
2023/12/29 11:14:49;;;;;;;1.85;0.47;;;24.90;99.90;;;;;;5133878;27;20208;-79
2023/12/29 11:17:23;;;;;;;0.40;0.40;;;24.90;99.90;;;;;;5128787;27;20626;-77
2023/12/29 11:19:55;;;;;;;0.47;0.40;;;24.90;99.90;;;;;;5127752;28;20208;-78
2023/12/29 11:22:27;;;;;;;0.95;0.60;;;24.90;99.90;;;;;;5114130;27;20190;-77
2023/12/29 11:24:59;;;;;;;1.27;0.75;;;24.90;99.90;;;;;;5134773;27;20219;-78
2023/12/29 11:27:31;;;;;;;1.20;0.63;;;25.00;99.90;;;;;;5131175;27;20192;-79
2023/12/29 11:30:03;;;;;;;1.20;0.70;;;25.00;99.90;;;;;;5124305;27;20700;-78
2023/12/29 11:32:43;;;;;;;0.82;0.55;;;25.00;99.90;;;;;;5132730;27;20220;-79
2023/12/29 11:35:20;;;;;;;1.33;0.70;;;25.00;99.90;;;;;;5127575;27;20289;-78
2023/12/29 11:38:08;;;;;;;1.52;0.70;;;25.00;99.90;;;;;;5137095;27;20201;-78
2023/12/29 11:40:44;;;;;;;1.30;0.70;;;24.90;99.90;;;;;;5130876;27;20289;-80
2023/12/29 11:43:20;;;;;;;0.90;0.70;;;24.90;99.90;;;;;;5139382;27;20250;-78
2023/12/29 11:45:51;;;;;;;1.27;0.80;;;24.90;99.90;;;;;;5124591;27;20216;-78
2023/12/29 11:48:53;;;;;;;0.90;0.60;;;24.90;99.90;;;;;;5136416;27;20204;-77
2023/12/29 11:51:36;;;;;;;1.33;0.68;;;24.90;99.90;;;;;;5137477;27;20221;-78
2023/12/29 11:54:08;;;;;;;2.10;1.00;;;24.90;99.90;;;;;;5126126;27;20681;-79
2023/12/29 11:56:40;;;;;;;1.27;0.70;;;24.90;99.90;;;;;;5133784;27;20200;-77
2023/12/29 11:59:21;;;;;;;1.00;0.90;;;24.90;99.90;;;;;;5133609;27;20675;-78
2023/12/29 12:01:53;;;;;;;0.80;0.80;;;24.80;99.90;;;;;;5131285;27;20660;-79
2023/12/29 12:04:40;;;;;;;0.98;0.70;;;24.80;99.90;;;;;;5132118;27;20205;-78
2023/12/29 12:07:16;;;;;;;0.70;0.70;;;24.80;99.90;;;;;;5132237;27;20201;-79
2023/12/29 12:09:49;;;;;;;0.77;0.75;;;24.80;99.90;;;;;;5122330;27;20738;-79
2023/12/29 12:12:43;;;;;;;1.20;0.77;;;24.80;99.90;;;;;;5124483;27;20745;-80
2023/12/29 12:15:37;;;;;;;2.08;0.80;;;24.80;99.90;;;;;;5129358;27;20767;-81
2023/12/29 12:18:09;;;;;;;0.50;0.50;;;24.80;99.90;;;;;;5127656;27;20301;-80
2023/12/29 12:20:41;;;;;;;3.05;0.70;;;24.80;99.90;;;;;;5131003;27;20620;-82
2023/12/29 12:23:21;;;;;;;1.55;0.80;;;24.80;99.90;;;;;;5134496;27;20193;-82
2023/12/29 12:25:59;;;;;;;2.13;0.70;;;24.80;99.90;;;;;;5129733;27;20217;-78
2023/12/29 12:28:30;;;;;;;2.88;0.70;;;24.80;99.90;;;;;;5127208;27;20209;-80
2023/12/29 12:31:09;;;;;;;1.25;0.82;;;24.70;99.90;;;;;;5126365;27;20232;-79
2023/12/29 12:33:40;;;;;;;2.30;0.80;;;24.80;99.90;;;;;;5135814;27;20204;-78
2023/12/29 12:36:11;;;;;;;2.35;0.80;;;24.70;99.90;;;;;;5131199;27;20221;-79
2023/12/29 12:38:54;;;;;;;0.88;0.80;;;24.70;99.90;;;;;;5132649;27;20591;-79
2023/12/29 12:41:25;;;;;;;1.10;0.75;;;24.70;99.90;;;;;;5131450;27;20225;-78
2023/12/29 12:44:08;;;;;;;2.67;0.70;;;24.60;99.90;;;;;;5123662;27;20705;-78
2023/12/29 12:46:42;;;;;;;1.70;0.63;;;24.60;99.90;;;;;;5141937;27;20225;-79
2023/12/29 12:49:13;;;;;;;1.23;0.60;;;24.50;99.90;;;;;;5136340;27;20221;-79
2023/12/29 12:51:44;;;;;;;1.70;0.80;;;24.50;99.90;;;;;;5126554;27;20305;-79
2023/12/29 12:54:21;;;;;;;1.08;0.73;;;24.50;99.90;;;;;;5132916;27;22003;-79
2023/12/29 12:56:53;;;;;;;0.57;0.57;;;24.50;99.90;;;;;;5132748;27;20213;-78
2023/12/29 12:59:25;;;;;;;1.60;0.63;;;24.50;99.90;;;;;;5131089;27;20613;-79
2023/12/29 13:01:56;;;;;;;1.17;0.77;;;24.50;99.90;;;;;;5130061;27;20202;-79
2023/12/29 13:04:27;;;;;;;1.35;0.90;;;24.50;99.90;;;;;;5121464;27;20217;-79
2023/12/29 13:06:57;;;;;;;1.38;0.70;;;24.50;99.90;;;;;;5125383;27;20217;-79
2023/12/29 13:09:31;;;;;;;1.23;0.60;;;24.40;99.90;;;;;;5125117;27;20217;-78
2023/12/29 13:12:15;;;;;;;1.25;0.90;;;24.40;99.90;;;;;;5135638;27;20237;-78